createdAt,value
2023-01-20T00:02:03.659Z,1.44
2023-01-20T00:04:35.412Z,1.41
2023-01-20T00:07:07.155Z,1.41
2023-01-20T00:09:39.252Z,1.47
2023-01-20T00:12:11.090Z,1.56
2023-01-20T00:14:42.916Z,1.65
2023-01-20T00:17:14.642Z,1.72
2023-01-20T00:19:46.448Z,1.70
2023-01-20T00:22:18.217Z,1.62
2023-01-20T00:24:49.923Z,1.53
2023-01-20T00:27:21.705Z,1.43
2023-01-20T00:29:53.554Z,1.38
2023-01-20T00:32:25.460Z,1.39
2023-01-20T00:34:57.457Z,1.43
2023-01-20T00:37:29.304Z,1.45
2023-01-20T00:40:01.170Z,1.46
2023-01-20T00:42:33.086Z,1.42
2023-01-20T00:45:05.212Z,1.41
2023-01-20T00:47:36.976Z,1.37
2023-01-20T00:50:10.172Z,1.34
2023-01-20T00:52:42.058Z,1.41
2023-01-20T00:55:14.712Z,1.43
2023-01-20T00:57:46.710Z,1.42
2023-01-20T01:00:20.088Z,1.38
2023-01-20T01:02:54.816Z,1.33
2023-01-20T01:05:26.958Z,1.28
2023-01-20T01:07:58.762Z,1.22
2023-01-20T01:10:30.623Z,1.16
2023-01-20T01:13:05.313Z,1.17
2023-01-20T01:15:37.424Z,1.22
2023-01-20T01:18:09.262Z,1.22
2023-01-20T01:20:41.724Z,1.30
2023-01-20T01:23:13.759Z,1.31
2023-01-20T01:25:45.476Z,1.30
2023-01-20T01:28:17.694Z,1.30
2023-01-20T01:30:49.499Z,1.33
2023-01-20T01:33:21.393Z,1.40
2023-01-20T01:35:59.152Z,1.45
2023-01-20T01:38:31.641Z,1.48
2023-01-20T01:41:03.768Z,1.47
2023-01-20T01:43:37.867Z,1.45
2023-01-20T01:46:09.807Z,1.39
2023-01-20T01:48:43.518Z,1.34
2023-01-20T01:51:18.804Z,1.30
2023-01-20T01:53:54.302Z,1.25
2023-01-20T01:56:26.949Z,1.30
2023-01-20T01:59:01.040Z,1.29
2023-01-20T02:01:33.400Z,1.33
2023-01-20T02:04:07.113Z,1.33
2023-01-20T02:06:42.127Z,1.29
2023-01-20T02:09:14.293Z,1.29
2023-01-20T02:11:49.468Z,1.22
2023-01-20T02:14:23.165Z,1.19
2023-01-20T02:17:00.497Z,1.14
2023-01-20T02:20:02.446Z,1.14
2023-01-20T02:22:41.303Z,1.16
2023-01-20T02:25:36.914Z,1.17
2023-01-20T02:28:38.723Z,1.22
2023-01-20T02:31:22.659Z,1.23
2023-01-20T02:33:57.780Z,1.19
2023-01-20T02:36:33.701Z,1.21
2023-01-20T02:39:09.574Z,1.19
2023-01-20T02:41:46.946Z,1.15
2023-01-20T02:44:24.321Z,1.12
2023-01-20T02:47:00.167Z,1.13
2023-01-20T02:49:35.615Z,1.15
2023-01-20T02:52:11.092Z,1.21
2023-01-20T02:54:46.134Z,1.22
2023-01-20T02:57:23.148Z,1.23
2023-01-20T02:59:57.205Z,1.21
2023-01-20T03:02:30.731Z,1.19
2023-01-20T03:05:07.528Z,1.16
2023-01-20T03:07:41.532Z,1.16
2023-01-20T03:10:17.443Z,1.19
2023-01-20T03:12:54.246Z,1.22
2023-01-20T03:15:29.604Z,1.25
2023-01-20T03:18:01.397Z,1.25
2023-01-20T03:20:33.304Z,1.22
2023-01-20T03:23:05.025Z,1.19
2023-01-20T03:25:38.209Z,1.15
2023-01-20T03:28:10.083Z,1.08
2023-01-20T03:30:41.971Z,1.11
2023-01-20T03:33:14.850Z,1.13
2023-01-20T03:35:47.021Z,1.19
2023-01-20T03:38:18.953Z,1.26
2023-01-20T03:40:54.622Z,1.29
2023-01-20T03:43:32.405Z,1.37
2023-01-20T03:46:06.446Z,1.39
2023-01-20T03:48:43.215Z,1.43
2023-01-20T03:51:18.665Z,1.42
2023-01-20T03:53:53.922Z,1.45
2023-01-20T03:56:29.593Z,1.45
2023-01-20T03:59:03.437Z,1.44
2023-01-20T04:01:37.521Z,1.41
2023-01-20T04:04:12.779Z,1.42
2023-01-20T04:06:45.357Z,1.43
2023-01-20T04:09:34.484Z,1.35
2023-01-20T04:12:08.100Z,1.27
2023-01-20T04:14:40.034Z,1.24
2023-01-20T04:17:12.279Z,1.22
2023-01-20T04:19:44.322Z,1.26
2023-01-20T04:22:20.420Z,1.29
2023-01-20T04:24:54.304Z,1.29
2023-01-20T04:27:26.065Z,1.27
2023-01-20T04:29:58.040Z,1.21
2023-01-20T04:32:29.828Z,1.17
2023-01-20T04:35:01.637Z,1.23
2023-01-20T04:37:33.702Z,1.24
2023-01-20T04:40:05.738Z,1.21
2023-01-20T04:42:37.711Z,1.18
2023-01-20T04:45:11.253Z,1.14
2023-01-20T04:47:43.222Z,1.16
2023-01-20T04:50:16.615Z,1.15
2023-01-20T04:52:48.486Z,1.19
2023-01-20T04:55:20.328Z,1.24
2023-01-20T04:57:52.126Z,1.29
2023-01-20T05:00:24.464Z,1.32
2023-01-20T05:02:59.560Z,1.31
2023-01-20T05:05:31.413Z,1.30
2023-01-20T05:08:04.834Z,1.28
2023-01-20T05:10:36.893Z,1.25
2023-01-20T05:13:08.658Z,1.22
2023-01-20T05:15:41.969Z,1.23
2023-01-20T05:18:13.955Z,1.25
2023-01-20T05:20:47.334Z,1.28
2023-01-20T05:23:19.462Z,1.28
2023-01-20T05:25:53.931Z,1.33
2023-01-20T05:28:25.979Z,1.34
2023-01-20T05:30:57.858Z,1.35
2023-01-20T05:33:29.747Z,1.35
2023-01-20T05:36:01.557Z,1.37
2023-01-20T05:38:33.357Z,1.42
2023-01-20T05:41:06.255Z,1.53
2023-01-20T05:43:38.553Z,1.63
2023-01-20T05:46:10.498Z,1.71
2023-01-20T05:48:42.394Z,1.75
2023-01-20T05:51:14.163Z,1.74
2023-01-20T05:53:45.992Z,1.79
2023-01-20T05:56:17.916Z,1.85
2023-01-20T05:58:50.819Z,1.90
2023-01-20T06:01:23.237Z,1.91
2023-01-20T06:03:55.053Z,1.94
2023-01-20T06:06:27.580Z,1.95
2023-01-20T06:08:59.330Z,1.94
2023-01-20T06:11:31.186Z,1.93
2023-01-20T06:14:03.071Z,1.94
2023-01-20T06:16:34.857Z,1.98
2023-01-20T06:19:06.628Z,2.03
2023-01-20T06:21:38.333Z,2.05
2023-01-20T06:24:10.413Z,2.06
2023-01-20T06:26:42.158Z,2.05
2023-01-20T06:29:14.004Z,2.01
2023-01-20T06:31:45.856Z,1.98
2023-01-20T06:34:17.742Z,1.92
2023-01-20T06:36:49.458Z,1.98
2023-01-20T06:39:21.433Z,2.01
2023-01-20T06:41:53.199Z,2.05
2023-01-20T06:44:25.075Z,2.08
2023-01-20T06:46:58.270Z,2.10
2023-01-20T06:49:30.245Z,2.10
2023-01-20T06:52:02.004Z,2.08
2023-01-20T06:54:33.783Z,2.09
2023-01-20T06:57:05.550Z,2.11
2023-01-20T06:59:37.447Z,2.15
2023-01-20T07:02:10.211Z,2.16
2023-01-20T07:04:42.687Z,2.14
2023-01-20T07:07:15.341Z,2.08
2023-01-20T07:09:48.146Z,1.99
2023-01-20T07:12:19.856Z,1.94
2023-01-20T07:14:51.524Z,1.93
2023-01-20T07:17:23.471Z,1.96
2023-01-20T07:19:55.290Z,2.00
2023-01-20T07:22:26.960Z,2.04
2023-01-20T07:24:58.648Z,2.07
2023-01-20T07:27:30.443Z,2.09
2023-01-20T07:30:02.167Z,2.08
2023-01-20T07:32:34.216Z,2.04
2023-01-20T07:35:06.901Z,2.05
2023-01-20T07:37:38.699Z,2.03
2023-01-20T07:40:13.259Z,2.04
2023-01-20T07:42:44.991Z,2.08
2023-01-20T07:45:17.444Z,2.13
2023-01-20T07:47:49.198Z,2.17
2023-01-20T07:50:20.910Z,2.22
2023-01-20T07:52:52.696Z,2.27
2023-01-20T07:55:25.237Z,2.34
2023-01-20T07:57:57.379Z,2.39
2023-01-20T08:00:29.621Z,2.37
2023-01-20T08:03:01.401Z,2.44
2023-01-20T08:05:34.700Z,2.48
2023-01-20T08:08:06.612Z,2.44
2023-01-20T08:10:38.397Z,2.41
2023-01-20T08:13:10.064Z,2.43
2023-01-20T08:15:41.822Z,2.47
2023-01-20T08:18:13.575Z,2.50
2023-01-20T08:20:45.328Z,2.49
2023-01-20T08:23:17.155Z,2.49
2023-01-20T08:25:49.014Z,2.47
2023-01-20T08:28:21.024Z,2.44
2023-01-20T08:30:52.935Z,2.39
2023-01-20T08:33:24.731Z,2.39
2023-01-20T08:35:59.239Z,2.49
2023-01-20T08:38:30.958Z,2.56
2023-01-20T08:41:02.761Z,2.59
2023-01-20T08:43:34.545Z,2.57
2023-01-20T08:46:08.495Z,2.54
2023-01-20T08:48:43.078Z,2.51
2023-01-20T08:51:17.044Z,2.43
2023-01-20T08:53:48.927Z,2.38
2023-01-20T08:56:21.253Z,2.38
2023-01-20T08:58:54.104Z,2.38
2023-01-20T09:01:27.705Z,2.36
2023-01-20T09:04:05.768Z,2.33
2023-01-20T09:06:46.663Z,2.29
2023-01-20T09:09:20.171Z,2.24
2023-01-20T09:11:51.993Z,2.18
2023-01-20T09:14:25.274Z,2.16
2023-01-20T09:16:57.018Z,2.17
2023-01-20T09:19:28.744Z,2.22
2023-01-20T09:22:00.408Z,2.23
2023-01-20T09:24:32.196Z,2.22
2023-01-20T09:27:03.919Z,2.24
2023-01-20T09:29:36.861Z,2.26
2023-01-20T09:32:08.655Z,2.22
2023-01-20T09:34:40.397Z,2.25
2023-01-20T09:37:29.810Z,2.21
2023-01-20T09:40:19.154Z,2.23
2023-01-20T09:43:18.991Z,2.23
2023-01-20T09:45:56.210Z,2.20
2023-01-20T09:48:50.330Z,2.19
2023-01-20T09:51:45.804Z,2.17
2023-01-20T09:54:20.663Z,2.22
2023-01-20T09:56:50.788Z,2.24
2023-01-20T09:59:26.206Z,2.26
2023-01-20T10:02:01.219Z,2.25
2023-01-20T10:04:37.462Z,2.20
2023-01-20T10:07:12.740Z,2.17
2023-01-20T10:09:50.533Z,2.15
2023-01-20T10:12:26.515Z,2.17
2023-01-20T10:15:06.837Z,2.21
2023-01-20T10:17:41.146Z,2.24
2023-01-20T10:20:17.031Z,2.27
2023-01-20T10:22:54.251Z,2.26
2023-01-20T10:25:29.351Z,2.24
2023-01-20T10:28:08.052Z,2.21
2023-01-20T10:30:40.526Z,2.20
2023-01-20T10:33:13.867Z,2.19
2023-01-20T10:35:47.787Z,2.29
2023-01-20T10:38:22.681Z,2.37
2023-01-20T10:40:55.239Z,2.44
2023-01-20T10:43:26.934Z,2.46
2023-01-20T10:46:07.973Z,2.41
2023-01-20T10:48:55.049Z,2.41
2023-01-20T10:51:31.282Z,2.42
2023-01-20T10:54:10.752Z,2.44
2023-01-20T10:56:45.567Z,2.44
2023-01-20T10:59:16.809Z,2.47
2023-01-20T11:02:02.542Z,2.53
2023-01-20T11:04:42.359Z,2.58
2023-01-20T11:07:18.312Z,2.60
2023-01-20T11:09:51.308Z,2.63
2023-01-20T11:12:26.177Z,2.64
2023-01-20T11:14:58.480Z,2.63
2023-01-20T11:17:30.262Z,2.54
2023-01-20T11:20:08.006Z,2.54
2023-01-20T11:22:40.270Z,2.56
2023-01-20T11:25:27.320Z,2.58
2023-01-20T11:27:58.385Z,2.62
2023-01-20T11:30:32.918Z,2.64
2023-01-20T11:33:21.678Z,2.63
2023-01-20T11:36:04.722Z,2.61
2023-01-20T11:38:44.572Z,2.59
2023-01-20T11:41:23.892Z,2.59
2023-01-20T11:43:57.092Z,2.63
2023-01-20T11:46:34.066Z,2.63
2023-01-20T11:49:22.011Z,2.59
2023-01-20T11:51:55.601Z,2.53
2023-01-20T11:54:29.360Z,2.47
2023-01-20T11:57:04.836Z,2.44
2023-01-20T11:59:39.140Z,2.44
2023-01-20T12:02:25.300Z,2.43
2023-01-20T12:05:13.880Z,2.43
2023-01-20T12:07:49.095Z,2.41
2023-01-20T12:10:23.868Z,2.40
2023-01-20T12:12:58.749Z,2.44
2023-01-20T12:15:32.762Z,2.49
2023-01-20T12:18:09.570Z,2.52
2023-01-20T12:20:54.619Z,2.53
2023-01-20T12:23:45.884Z,2.54
2023-01-20T12:26:19.162Z,2.59
2023-01-20T12:28:57.388Z,2.65
2023-01-20T12:31:29.278Z,2.71
2023-01-20T12:34:02.538Z,2.74
2023-01-20T12:37:13.312Z,2.72
2023-01-20T12:39:52.844Z,2.75
2023-01-20T12:43:06.520Z,2.71
2023-01-20T12:45:57.290Z,2.64
2023-01-20T12:48:35.278Z,2.64
2023-01-20T12:51:15.954Z,2.60
2023-01-20T12:54:01.482Z,2.58
2023-01-20T12:56:40.108Z,2.60
2023-01-20T12:59:21.023Z,2.63
2023-01-20T13:02:06.597Z,2.60
2023-01-20T13:04:58.618Z,2.56
2023-01-20T13:07:52.730Z,2.55
2023-01-20T13:10:34.553Z,2.53
2023-01-20T13:13:19.402Z,2.51
2023-01-20T13:15:57.578Z,2.51
2023-01-20T13:18:35.478Z,2.52
2023-01-20T13:21:07.510Z,2.47
2023-01-20T13:23:39.613Z,2.40
2023-01-20T13:26:14.218Z,2.38
2023-01-20T13:28:55.472Z,2.39
2023-01-20T13:31:46.244Z,2.36
2023-01-20T13:34:38.947Z,2.29
2023-01-20T13:37:36.870Z,2.22
2023-01-20T13:40:50.620Z,2.22
2023-01-20T13:43:41.067Z,2.14
2023-01-20T13:46:49.292Z,2.13
2023-01-20T13:49:48.022Z,2.11
2023-01-20T13:52:57.162Z,2.18
2023-01-20T13:55:32.847Z,2.24
2023-01-20T13:58:04.587Z,2.21
2023-01-20T14:00:37.572Z,2.10
2023-01-20T14:03:18.882Z,2.11
2023-01-20T14:05:53.301Z,2.11
2023-01-20T14:08:26.391Z,2.14
2023-01-20T14:11:12.751Z,2.16
2023-01-20T14:13:53.283Z,2.17
2023-01-20T14:16:27.855Z,2.18
2023-01-20T14:19:01.925Z,2.09
2023-01-20T14:21:41.931Z,2.02
2023-01-20T14:24:29.337Z,1.93
2023-01-20T14:27:15.473Z,1.96
2023-01-20T14:29:48.032Z,1.97
2023-01-20T14:32:22.586Z,1.98
2023-01-20T14:34:52.969Z,1.94
2023-01-20T14:37:28.661Z,1.89
2023-01-20T14:40:02.996Z,1.84
2023-01-20T14:42:34.797Z,1.82
2023-01-20T14:45:21.073Z,1.78
2023-01-20T14:47:53.370Z,1.73
2023-01-20T14:50:25.169Z,1.75
2023-01-20T14:52:56.982Z,1.78
2023-01-20T14:55:34.282Z,1.78
2023-01-20T14:58:10.317Z,1.80
2023-01-20T15:00:46.615Z,1.78
2023-01-20T15:03:21.215Z,1.78
2023-01-20T15:05:59.259Z,1.79
2023-01-20T15:09:04.438Z,1.78
2023-01-20T15:11:37.919Z,1.76
2023-01-20T15:14:12.300Z,1.78
2023-01-20T15:16:53.716Z,1.69
2023-01-20T15:19:43.072Z,1.73
2023-01-20T15:22:22.925Z,1.72
2023-01-20T15:24:54.929Z,1.67
2023-01-20T15:27:29.445Z,1.66
2023-01-20T15:30:21.405Z,1.67
2023-01-20T15:32:55.140Z,1.70
2023-01-20T15:35:27.201Z,1.71
2023-01-20T15:37:59.039Z,1.67
2023-01-20T15:40:31.052Z,1.66
2023-01-20T15:43:02.927Z,1.64
2023-01-20T15:45:34.912Z,1.58
2023-01-20T15:48:12.627Z,1.58
2023-01-20T15:50:44.633Z,1.59
2023-01-20T15:53:16.778Z,1.56
2023-01-20T15:55:53.140Z,1.55
2023-01-20T15:58:27.635Z,1.54
2023-01-20T16:01:00.654Z,1.55
2023-01-20T16:03:35.528Z,1.57
2023-01-20T16:06:14.360Z,1.63
2023-01-20T16:08:48.006Z,1.66
2023-01-20T16:11:20.818Z,1.68
2023-01-20T16:13:52.778Z,1.68
2023-01-20T16:16:26.825Z,1.65
2023-01-20T16:19:00.604Z,1.63
2023-01-20T16:21:32.307Z,1.64
2023-01-20T16:24:04.045Z,1.63
2023-01-20T16:26:36.891Z,1.57
2023-01-20T16:29:09.733Z,1.54
2023-01-20T16:31:41.508Z,1.52
2023-01-20T16:34:13.188Z,1.51
2023-01-20T16:36:44.853Z,1.49
2023-01-20T16:39:16.713Z,1.50
2023-01-20T16:41:50.774Z,1.49
2023-01-20T16:44:22.534Z,1.51
2023-01-20T16:46:54.441Z,1.49
2023-01-20T16:49:26.178Z,1.45
2023-01-20T16:51:57.879Z,1.46
2023-01-20T16:54:29.701Z,1.51
2023-01-20T16:57:01.413Z,1.54
2023-01-20T16:59:33.488Z,1.54
2023-01-20T17:02:05.278Z,1.49
2023-01-20T17:04:37.789Z,1.44
2023-01-20T17:07:09.884Z,1.46
2023-01-20T17:09:41.777Z,1.51
2023-01-20T17:12:14.057Z,1.51
2023-01-20T17:14:45.804Z,1.42
2023-01-20T17:17:17.594Z,1.40
2023-01-20T17:19:49.657Z,1.38
2023-01-20T17:22:21.451Z,1.41
2023-01-20T17:24:53.301Z,1.43
2023-01-20T17:27:25.024Z,1.39
2023-01-20T17:29:56.960Z,1.37
2023-01-20T17:32:28.718Z,1.37
2023-01-20T17:35:00.519Z,1.35
2023-01-20T17:37:32.578Z,1.36
2023-01-20T17:40:04.599Z,1.39
2023-01-20T17:42:36.331Z,1.38
2023-01-20T17:45:09.520Z,1.37
2023-01-20T17:47:41.187Z,1.37
2023-01-20T17:50:13.916Z,1.37
2023-01-20T17:52:45.746Z,1.40
2023-01-20T17:55:17.993Z,1.45
2023-01-20T17:57:52.248Z,1.48
2023-01-20T18:00:25.308Z,1.51
2023-01-20T18:02:58.901Z,1.53
2023-01-20T18:05:30.976Z,1.56
2023-01-20T18:08:02.775Z,1.56
2023-01-20T18:10:34.450Z,1.56
2023-01-20T18:13:06.163Z,1.56
2023-01-20T18:15:42.686Z,1.63
2023-01-20T18:18:14.479Z,1.66
2023-01-20T18:20:46.148Z,1.67
2023-01-20T18:23:17.911Z,1.66
2023-01-20T18:25:49.656Z,1.65
2023-01-20T18:28:21.353Z,1.61
2023-01-20T18:30:53.475Z,1.59
2023-01-20T18:33:26.575Z,1.61
2023-01-20T18:35:58.892Z,1.63
2023-01-20T18:38:30.603Z,1.62
2023-01-20T18:41:03.192Z,1.61
2023-01-20T18:43:35.390Z,1.57
2023-01-20T18:46:07.724Z,1.57
2023-01-20T18:48:41.299Z,1.57
2023-01-20T18:51:14.989Z,1.57
2023-01-20T18:53:48.681Z,1.57
2023-01-20T18:56:20.351Z,1.57
2023-01-20T18:58:52.888Z,1.55
2023-01-20T19:01:26.310Z,1.53
2023-01-20T19:03:59.269Z,1.53
2023-01-20T19:06:34.253Z,1.56
2023-01-20T19:09:06.871Z,1.59
2023-01-20T19:11:41.854Z,1.62
2023-01-20T19:14:16.179Z,1.64
2023-01-20T19:16:49.379Z,1.65
2023-01-20T19:19:21.652Z,1.68
2023-01-20T19:21:59.651Z,1.71
2023-01-20T19:24:31.538Z,1.74
2023-01-20T19:27:03.800Z,1.75
2023-01-20T19:29:35.570Z,1.75
2023-01-20T19:32:07.627Z,1.77
2023-01-20T19:34:43.969Z,1.75
2023-01-20T19:37:15.683Z,1.74
2023-01-20T19:39:48.218Z,1.75
2023-01-20T19:42:25.707Z,1.75
2023-01-20T19:44:57.662Z,1.75
2023-01-20T19:47:31.522Z,1.74
2023-01-20T19:50:03.446Z,1.71
2023-01-20T19:52:35.155Z,1.66
2023-01-20T19:55:07.318Z,1.65
2023-01-20T19:57:39.043Z,1.67
2023-01-20T20:00:13.733Z,1.71
2023-01-20T20:02:45.855Z,1.70
2023-01-20T20:05:19.227Z,1.65
2023-01-20T20:07:51.219Z,1.63
2023-01-20T20:10:22.976Z,1.63
2023-01-20T20:12:54.671Z,1.66
2023-01-20T20:15:26.833Z,1.70
2023-01-20T20:17:58.584Z,1.73
2023-01-20T20:20:32.348Z,1.74
2023-01-20T20:23:05.527Z,1.70
2023-01-20T20:25:38.503Z,1.68
2023-01-20T20:28:11.173Z,1.67
2023-01-20T20:30:43.284Z,1.69
2023-01-20T20:33:19.309Z,1.71
2023-01-20T20:35:51.129Z,1.70
2023-01-20T20:38:27.168Z,1.68
2023-01-20T20:41:02.835Z,1.64
2023-01-20T20:43:34.951Z,1.63
2023-01-20T20:46:08.786Z,1.63
2023-01-20T20:48:40.860Z,1.67
2023-01-20T20:51:14.573Z,1.67
2023-01-20T20:53:46.965Z,1.66
2023-01-20T20:56:19.488Z,1.64
2023-01-20T20:59:00.896Z,1.59
2023-01-20T21:01:35.386Z,1.60
2023-01-20T21:04:07.640Z,1.60
2023-01-20T21:06:39.601Z,1.58
2023-01-20T21:09:12.352Z,1.57
2023-01-20T21:11:45.862Z,1.54
2023-01-20T21:14:20.668Z,1.52
2023-01-20T21:16:52.733Z,1.50
2023-01-20T21:19:24.972Z,1.56
2023-01-20T21:21:58.178Z,1.57
2023-01-20T21:24:30.116Z,1.55
2023-01-20T21:27:02.585Z,1.53
2023-01-20T21:29:34.344Z,1.53
2023-01-20T21:32:06.342Z,1.55
2023-01-20T21:34:38.238Z,1.57
2023-01-20T21:37:12.260Z,1.59
2023-01-20T21:39:46.547Z,1.59
2023-01-20T21:42:18.547Z,1.57
2023-01-20T21:44:50.252Z,1.55
2023-01-20T21:47:22.527Z,1.53
2023-01-20T21:50:12.707Z,1.49
2023-01-20T21:52:45.413Z,1.52
2023-01-20T21:55:19.235Z,1.49
2023-01-20T21:57:51.928Z,1.46
2023-01-20T22:00:24.215Z,1.44
2023-01-20T22:02:55.985Z,1.46
2023-01-20T22:05:27.789Z,1.49
2023-01-20T22:07:59.855Z,1.51
2023-01-20T22:10:32.633Z,1.51
2023-01-20T22:13:07.540Z,1.47
2023-01-20T22:15:40.444Z,1.44
2023-01-20T22:18:12.116Z,1.45
2023-01-20T22:20:43.972Z,1.47
2023-01-20T22:23:15.679Z,1.47
2023-01-20T22:25:47.450Z,1.43
2023-01-20T22:28:19.290Z,1.37
2023-01-20T22:30:50.962Z,1.34
2023-01-20T22:33:22.684Z,1.36
2023-01-20T22:35:56.541Z,1.41
2023-01-20T22:38:28.505Z,1.41
2023-01-20T22:41:05.213Z,1.42
2023-01-20T22:43:38.789Z,1.42
2023-01-20T22:46:11.127Z,1.43
2023-01-20T22:48:43.325Z,1.44
2023-01-20T22:51:17.033Z,1.45
2023-01-20T22:53:49.088Z,1.44
2023-01-20T22:56:22.657Z,1.41
2023-01-20T22:58:54.426Z,1.36
2023-01-20T23:01:27.550Z,1.36
2023-01-20T23:04:00.143Z,1.36
2023-01-20T23:06:33.698Z,1.33
2023-01-20T23:09:07.356Z,1.32
2023-01-20T23:11:40.236Z,1.30
2023-01-20T23:14:13.500Z,1.28
2023-01-20T23:16:45.606Z,1.29
2023-01-20T23:19:18.586Z,1.31
2023-01-20T23:21:50.319Z,1.31
2023-01-20T23:24:22.235Z,1.30
2023-01-20T23:26:54.029Z,1.30
2023-01-20T23:29:25.826Z,1.32
2023-01-20T23:31:58.102Z,1.34
2023-01-20T23:34:29.889Z,1.33
2023-01-20T23:37:01.706Z,1.32
2023-01-20T23:39:33.404Z,1.26
2023-01-20T23:42:05.312Z,1.27
2023-01-20T23:44:37.061Z,1.30
2023-01-20T23:47:10.342Z,1.32
2023-01-20T23:49:42.087Z,1.32
2023-01-20T23:52:13.903Z,1.30
2023-01-20T23:54:45.597Z,1.31
2023-01-20T23:57:17.341Z,1.35
2023-01-20T23:59:49.194Z,1.38
